Time;durP1;ratioP1;P1;durP2;ratioP2;P2;SDS_P1;SDS_P2;PMS_P1;PMS_P2;Temp;Humidity;BMP_temperature;BMP_pressure;BME280_temperature;BME280_humidity;BME280_pressure;Samples;Min_cycle;Max_cycle;Signal;HPM_P1;HPM_P2
2022/04/14 00:01:23;;;;;;;1.98;0.52;;;12.00;99.90;;;;;;5076188;28;20044;-83
2022/04/14 00:03:48;;;;;;;0.03;0.03;;;11.80;99.90;;;;;;5059357;28;20056;-83
2022/04/14 00:06:14;;;;;;;0.00;0.00;;;11.80;99.90;;;;;;5059595;28;20086;-83
2022/04/14 00:08:39;;;;;;;0.00;0.00;;;11.80;99.90;;;;;;5057907;28;20063;-84
2022/04/14 00:11:05;;;;;;;0.00;0.00;;;11.80;99.90;;;;;;5076400;28;20070;-83
2022/04/14 00:13:31;;;;;;;0.00;0.00;;;11.80;99.90;;;;;;5059267;28;20113;-83
2022/04/14 00:15:56;;;;;;;0.00;0.00;;;11.80;99.90;;;;;;5075867;28;20475;-83
2022/04/14 00:18:22;;;;;;;0.00;0.00;;;11.70;99.90;;;;;;5057085;28;20052;-83
2022/04/14 00:20:48;;;;;;;0.00;0.00;;;11.70;99.90;;;;;;5059082;28;20544;-84
2022/04/14 00:23:13;;;;;;;0.00;0.00;;;11.70;99.90;;;;;;5059316;28;20048;-83
2022/04/14 00:25:39;;;;;;;0.00;0.00;;;11.80;99.90;;;;;;5076058;28;20043;-84
2022/04/14 00:28:05;;;;;;;0.10;0.00;;;11.80;99.90;;;;;;5076149;28;20037;-84
2022/04/14 00:30:30;;;;;;;0.00;0.00;;;11.70;99.90;;;;;;5074479;28;20059;-84
2022/04/14 00:32:56;;;;;;;6.78;1.00;;;11.70;99.90;;;;;;5075902;28;20051;-83
2022/04/14 00:35:22;;;;;;;0.38;0.38;;;11.70;99.90;;;;;;5059145;28;20048;-83
2022/04/14 00:37:47;;;;;;;0.00;0.00;;;11.80;99.90;;;;;;5076051;28;20761;-83
2022/04/14 00:40:13;;;;;;;0.00;0.00;;;11.70;99.90;;;;;;5056966;28;20036;-83
2022/04/14 00:42:39;;;;;;;2.00;0.35;;;11.70;99.90;;;;;;5058890;28;20052;-84
2022/04/14 00:45:06;;;;;;;1.48;0.43;;;11.70;99.90;;;;;;5075772;28;20104;-84
2022/04/14 00:47:34;;;;;;;0.10;0.10;;;11.70;99.90;;;;;;5059235;28;20067;-84
2022/04/14 00:50:00;;;;;;;0.22;0.22;;;11.70;99.90;;;;;;5058985;28;20101;-83
2022/04/14 00:52:26;;;;;;;0.00;0.00;;;11.70;99.90;;;;;;5073726;28;20377;-84
2022/04/14 00:54:52;;;;;;;0.90;0.45;;;11.70;99.90;;;;;;5075878;28;20040;-83
2022/04/14 00:57:18;;;;;;;0.65;0.30;;;11.70;99.90;;;;;;5075721;28;20047;-83
2022/04/14 00:59:44;;;;;;;0.10;0.03;;;11.60;99.90;;;;;;5059066;28;20381;-84
2022/04/14 01:02:11;;;;;;;0.00;0.00;;;11.60;99.90;;;;;;5056997;28;20052;-84
2022/04/14 01:04:37;;;;;;;0.22;0.22;;;11.60;99.90;;;;;;5058431;28;20052;-84
2022/04/14 01:07:07;;;;;;;0.00;0.00;;;11.60;99.90;;;;;;5058750;28;20048;-84
2022/04/14 01:09:33;;;;;;;0.38;0.20;;;11.60;99.90;;;;;;5075624;28;20044;-84
2022/04/14 01:12:00;;;;;;;0.63;0.20;;;11.60;99.90;;;;;;5071567;28;20115;-84
2022/04/14 01:14:34;;;;;;;0.00;0.00;;;11.60;99.90;;;;;;5055103;28;20048;-84
2022/04/14 01:17:06;;;;;;;0.28;0.20;;;11.60;99.90;;;;;;5038786;28;20052;-84
2022/04/14 01:19:32;;;;;;;0.00;0.00;;;11.60;99.90;;;;;;5073636;28;20051;-84
2022/04/14 01:22:15;;;;;;;0.03;0.03;;;11.60;99.90;;;;;;5075021;28;20044;-84
2022/04/14 01:24:41;;;;;;;0.10;0.10;;;11.50;99.90;;;;;;5038651;28;20404;-84
2022/04/14 01:27:08;;;;;;;2.13;0.22;;;11.50;99.90;;;;;;5056910;28;20139;-84
2022/04/14 01:29:34;;;;;;;0.00;0.00;;;11.60;99.90;;;;;;5057294;28;20040;-83
2022/04/14 01:32:03;;;;;;;0.00;0.00;;;11.50;99.90;;;;;;5062221;28;20052;-84
2022/04/14 01:34:30;;;;;;;0.10;0.10;;;11.50;99.90;;;;;;5060389;28;20361;-84
2022/04/14 01:37:02;;;;;;;0.05;0.05;;;11.50;99.90;;;;;;5078971;28;20054;-84
2022/04/14 01:39:28;;;;;;;0.00;0.00;;;11.40;99.90;;;;;;5078795;28;20048;-84
2022/04/14 01:41:54;;;;;;;1.33;0.63;;;11.40;99.90;;;;;;5061864;28;20060;-84
2022/04/14 01:44:20;;;;;;;0.00;0.00;;;11.30;99.90;;;;;;5077362;28;20094;-84
2022/04/14 01:46:46;;;;;;;0.20;0.20;;;11.30;99.90;;;;;;5061978;28;20056;-85
2022/04/14 01:49:12;;;;;;;0.20;0.15;;;11.30;99.90;;;;;;5078687;28;20040;-84
2022/04/14 01:51:38;;;;;;;0.00;0.00;;;11.20;99.90;;;;;;5079122;28;20044;-84
2022/04/14 01:54:04;;;;;;;0.00;0.00;;;11.20;99.90;;;;;;5077250;28;20044;-84
2022/04/14 01:56:31;;;;;;;0.43;0.10;;;11.30;99.90;;;;;;5058456;28;20067;-84
2022/04/14 01:58:57;;;;;;;0.00;0.00;;;11.20;99.90;;;;;;5058468;28;20045;-84
2022/04/14 02:01:23;;;;;;;0.20;0.20;;;11.30;99.90;;;;;;5041492;28;20040;-84
2022/04/14 02:03:49;;;;;;;0.47;0.15;;;11.20;99.90;;;;;;5058478;28;20037;-84
2022/04/14 02:06:15;;;;;;;0.40;0.40;;;11.20;99.90;;;;;;5043219;28;20117;-84
2022/04/14 02:08:42;;;;;;;0.20;0.20;;;11.30;99.90;;;;;;5058253;28;20098;-84
2022/04/14 02:11:08;;;;;;;0.28;0.28;;;11.20;99.90;;;;;;5041694;28;20071;-84
2022/04/14 02:13:34;;;;;;;0.05;0.00;;;11.20;99.90;;;;;;5041586;28;20129;-84
2022/04/14 02:16:00;;;;;;;0.40;0.20;;;11.20;99.90;;;;;;5059388;28;20040;-84
2022/04/14 02:18:26;;;;;;;0.13;0.13;;;11.20;99.90;;;;;;5058237;28;20051;-84
2022/04/14 02:20:52;;;;;;;0.00;0.00;;;11.20;99.90;;;;;;5041242;28;20036;-84
2022/04/14 02:23:18;;;;;;;0.00;0.00;;;11.20;99.90;;;;;;5041528;28;20139;-84
2022/04/14 02:25:44;;;;;;;0.10;0.10;;;11.20;99.90;;;;;;5041419;28;20047;-84
2022/04/14 02:28:09;;;;;;;1.20;0.75;;;11.20;99.90;;;;;;5058374;28;20044;-84
2022/04/14 02:30:35;;;;;;;1.88;0.28;;;11.20;99.90;;;;;;5058649;28;20055;-84
2022/04/14 02:33:01;;;;;;;0.43;0.20;;;11.20;99.90;;;;;;5058429;28;20051;-84
2022/04/14 02:35:27;;;;;;;0.00;0.00;;;11.10;99.90;;;;;;5058324;28;20382;-84
2022/04/14 02:37:55;;;;;;;0.17;0.10;;;11.00;99.90;;;;;;5058586;28;20044;-84
2022/04/14 02:40:21;;;;;;;0.10;0.10;;;11.00;99.90;;;;;;5057504;28;20101;-84
2022/04/14 02:42:47;;;;;;;0.22;0.15;;;11.00;99.90;;;;;;5040768;28;20048;-84
2022/04/14 02:45:13;;;;;;;0.22;0.15;;;10.90;99.90;;;;;;5057741;28;20105;-84
2022/04/14 02:47:38;;;;;;;0.30;0.30;;;10.90;99.90;;;;;;5042379;28;20509;-84
2022/04/14 02:50:05;;;;;;;0.00;0.00;;;10.90;99.90;;;;;;5057716;28;20052;-84
2022/04/14 02:52:31;;;;;;;0.25;0.20;;;10.80;99.90;;;;;;5057394;28;20049;-84
2022/04/14 02:54:56;;;;;;;2.20;0.63;;;10.90;99.90;;;;;;5057477;28;20205;-84
2022/04/14 02:57:22;;;;;;;0.30;0.30;;;10.80;99.90;;;;;;5040774;28;20052;-84
2022/04/14 02:59:48;;;;;;;0.35;0.17;;;10.80;99.90;;;;;;5041442;28;20059;-85
2022/04/14 03:02:14;;;;;;;0.17;0.17;;;10.60;99.90;;;;;;5040348;28;20059;-85
2022/04/14 03:04:39;;;;;;;0.00;0.00;;;10.60;99.90;;;;;;5040462;28;20144;-84
2022/04/14 03:07:05;;;;;;;0.00;0.00;;;10.50;99.90;;;;;;5057464;28;20131;-84
2022/04/14 03:09:31;;;;;;;0.10;0.10;;;10.60;99.90;;;;;;5057793;28;20162;-84
2022/04/14 03:11:57;;;;;;;0.05;0.00;;;10.40;99.90;;;;;;5057125;28;20087;-84
2022/04/14 03:14:22;;;;;;;0.00;0.00;;;10.40;99.90;;;;;;5057306;28;20131;-84
2022/04/14 03:16:48;;;;;;;0.00;0.00;;;10.40;99.90;;;;;;5057131;28;20040;-84
2022/04/14 03:19:14;;;;;;;0.20;0.20;;;10.30;99.90;;;;;;5058244;28;20086;-84
2022/04/14 03:21:40;;;;;;;0.00;0.00;;;10.30;99.90;;;;;;5040091;28;20040;-85
2022/04/14 03:24:05;;;;;;;0.00;0.00;;;10.30;99.90;;;;;;5056788;28;20047;-85
2022/04/14 03:26:31;;;;;;;0.00;0.00;;;10.30;99.90;;;;;;5039774;28;20056;-85
2022/04/14 03:28:57;;;;;;;0.20;0.20;;;10.30;99.90;;;;;;5040197;28;20048;-85
2022/04/14 03:31:22;;;;;;;0.30;0.13;;;10.30;99.90;;;;;;5041113;28;20105;-85
2022/04/14 03:33:48;;;;;;;4.03;0.10;;;10.20;99.90;;;;;;5056803;28;20040;-85
2022/04/14 03:36:14;;;;;;;0.00;0.00;;;10.30;99.90;;;;;;5040284;28;20182;-85
2022/04/14 03:38:40;;;;;;;0.40;0.00;;;10.20;99.90;;;;;;5056783;28;20504;-85
2022/04/14 03:41:07;;;;;;;0.75;0.05;;;10.20;99.90;;;;;;5057236;28;20048;-85
2022/04/14 03:43:34;;;;;;;0.10;0.10;;;10.20;99.90;;;;;;5056593;28;20041;-85
2022/04/14 03:46:00;;;;;;;0.08;0.00;;;10.20;99.90;;;;;;5056662;28;20040;-85
2022/04/14 03:48:25;;;;;;;0.00;0.00;;;10.20;99.90;;;;;;5056534;28;20132;-85
2022/04/14 03:50:51;;;;;;;0.00;0.00;;;10.20;99.90;;;;;;5055981;28;20131;-85
2022/04/14 03:53:18;;;;;;;0.20;0.20;;;10.10;99.90;;;;;;5057382;28;20129;-85
2022/04/14 03:55:46;;;;;;;0.00;0.00;;;10.10;99.90;;;;;;5040028;28;20518;-85
2022/04/14 03:58:12;;;;;;;0.00;0.00;;;10.20;99.90;;;;;;5056106;28;20047;-85
2022/04/14 04:00:38;;;;;;;0.00;0.00;;;10.20;99.90;;;;;;5056124;28;20442;-85
2022/04/14 04:03:04;;;;;;;0.40;0.17;;;10.20;99.90;;;;;;5040278;28;20154;-85
2022/04/14 04:05:30;;;;;;;0.20;0.10;;;10.20;99.90;;;;;;5039604;28;20040;-85
2022/04/14 04:07:55;;;;;;;1.77;0.10;;;10.20;99.90;;;;;;5056334;28;20041;-84
2022/04/14 04:10:21;;;;;;;0.03;0.03;;;10.20;99.90;;;;;;5039361;28;20404;-85
2022/04/14 04:12:46;;;;;;;0.10;0.08;;;10.20;99.90;;;;;;5040293;28;20455;-85
2022/04/14 04:15:12;;;;;;;0.20;0.20;;;10.20;99.90;;;;;;5056495;28;20060;-85
2022/04/14 04:17:39;;;;;;;0.00;0.00;;;10.10;99.90;;;;;;5056500;28;20457;-85
2022/04/14 04:20:06;;;;;;;0.35;0.20;;;10.20;99.90;;;;;;5039380;28;20123;-85
2022/04/14 04:22:33;;;;;;;0.77;0.08;;;10.10;99.90;;;;;;5056016;28;20426;-85
2022/04/14 04:24:59;;;;;;;2.72;0.65;;;10.20;99.90;;;;;;5057137;28;20059;-85
2022/04/14 04:27:26;;;;;;;0.00;0.00;;;10.10;99.90;;;;;;5055592;28;20052;-85
2022/04/14 04:29:52;;;;;;;0.00;0.00;;;10.10;99.90;;;;;;5041612;28;20044;-85
2022/04/14 04:32:18;;;;;;;0.45;0.10;;;10.10;99.90;;;;;;5064194;28;20040;-85
2022/04/14 04:34:44;;;;;;;0.20;0.20;;;10.10;99.90;;;;;;5066025;28;20400;-86
2022/04/14 04:37:10;;;;;;;0.10;0.10;;;10.00;99.90;;;;;;5038807;28;20532;-86
2022/04/14 04:39:35;;;;;;;0.08;0.03;;;10.00;99.90;;;;;;5038817;28;20139;-86
2022/04/14 04:42:01;;;;;;;0.63;0.38;;;10.00;99.90;;;;;;5039140;28;20087;-86
2022/04/14 04:44:27;;;;;;;0.15;0.08;;;9.90;99.90;;;;;;5040343;28;20045;-86
2022/04/14 04:46:53;;;;;;;0.08;0.00;;;9.80;99.90;;;;;;5038805;28;20125;-86
2022/04/14 04:49:19;;;;;;;0.43;0.10;;;9.80;99.90;;;;;;5055734;28;20043;-86
2022/04/14 04:51:44;;;;;;;0.32;0.10;;;9.70;99.90;;;;;;5038968;28;20049;-86
2022/04/14 04:54:10;;;;;;;0.00;0.00;;;9.70;99.90;;;;;;5055643;28;20041;-87
2022/04/14 04:56:36;;;;;;;0.05;0.05;;;9.70;99.90;;;;;;5056406;28;20040;-86
2022/04/14 04:59:02;;;;;;;0.00;0.00;;;9.70;99.90;;;;;;5055742;28;20051;-87
2022/04/14 05:01:28;;;;;;;0.00;0.00;;;9.70;99.90;;;;;;5055902;28;20049;-87
2022/04/14 05:03:54;;;;;;;0.10;0.00;;;9.70;99.90;;;;;;5059643;28;20537;-87
2022/04/14 05:06:19;;;;;;;0.20;0.20;;;9.70;99.90;;;;;;5043502;28;20113;-86
2022/04/14 05:08:46;;;;;;;1.98;0.63;;;9.70;99.90;;;;;;5060006;28;20048;-86
2022/04/14 05:11:13;;;;;;;0.10;0.10;;;9.70;99.90;;;;;;5042977;28;20080;-87
2022/04/14 05:13:38;;;;;;;0.10;0.10;;;9.80;99.90;;;;;;5059539;28;20076;-86
2022/04/14 05:16:06;;;;;;;0.35;0.10;;;9.80;99.90;;;;;;5059353;28;20487;-85
2022/04/14 05:18:35;;;;;;;0.10;0.10;;;9.70;99.90;;;;;;5058195;28;20133;-87
2022/04/14 05:21:01;;;;;;;0.00;0.00;;;9.70;99.90;;;;;;5059131;28;20040;-87
2022/04/14 05:23:26;;;;;;;0.30;0.00;;;9.80;99.90;;;;;;5059316;28;20056;-87
2022/04/14 05:25:52;;;;;;;0.00;0.00;;;9.80;99.90;;;;;;5042774;28;20036;-87
2022/04/14 05:28:18;;;;;;;0.45;0.45;;;9.70;99.90;;;;;;5060313;28;20045;-86
2022/04/14 05:30:43;;;;;;;0.32;0.32;;;9.70;99.90;;;;;;5074381;28;20048;-87
2022/04/14 05:33:10;;;;;;;0.73;0.20;;;9.70;99.90;;;;;;5079113;28;20055;-87
2022/04/14 05:35:37;;;;;;;3.30;0.77;;;9.70;99.90;;;;;;5062333;28;20487;-86
2022/04/14 05:38:04;;;;;;;1.15;0.73;;;9.80;99.90;;;;;;5060364;28;20055;-87
2022/04/14 05:40:30;;;;;;;0.30;0.30;;;9.80;99.90;;;;;;5061963;28;20040;-86
2022/04/14 05:42:55;;;;;;;0.08;0.00;;;9.80;99.90;;;;;;5073420;28;20585;-87
2022/04/14 05:45:21;;;;;;;0.00;0.00;;;9.80;99.90;;;;;;5066732;28;20098;-86
2022/04/14 05:47:47;;;;;;;0.45;0.25;;;9.80;99.90;;;;;;5051639;28;20152;-87
2022/04/14 05:50:13;;;;;;;0.30;0.03;;;9.90;99.90;;;;;;5050458;28;20036;-87
2022/04/14 05:52:38;;;;;;;0.30;0.30;;;10.00;99.90;;;;;;5050848;28;20053;-87
2022/04/14 05:55:05;;;;;;;0.10;0.10;;;10.00;99.90;;;;;;5051625;28;20074;-86
2022/04/14 05:57:30;;;;;;;0.75;0.30;;;10.10;99.90;;;;;;5068634;28;20515;-86
2022/04/14 05:59:57;;;;;;;0.00;0.00;;;10.20;99.90;;;;;;5047687;28;20048;-87
2022/04/14 06:02:23;;;;;;;0.03;0.00;;;10.20;99.90;;;;;;5067677;28;20047;-87
2022/04/14 06:04:49;;;;;;;0.45;0.45;;;10.40;99.90;;;;;;5067092;28;20426;-87
2022/04/14 06:07:14;;;;;;;0.22;0.22;;;10.30;99.90;;;;;;5072428;28;20067;-86
2022/04/14 06:09:40;;;;;;;1.80;1.02;;;10.50;99.90;;;;;;5059921;28;21662;-86
2022/04/14 06:12:06;;;;;;;0.30;0.30;;;10.70;99.90;;;;;;5041715;28;20049;-88
2022/04/14 06:14:33;;;;;;;0.10;0.10;;;10.90;99.90;;;;;;5058275;28;20056;-87
2022/04/14 06:16:59;;;;;;;1.10;0.80;;;11.20;99.90;;;;;;5058449;28;20475;-87
2022/04/14 06:19:25;;;;;;;0.13;0.13;;;11.30;99.90;;;;;;5041623;28;20365;-87
2022/04/14 06:21:50;;;;;;;0.28;0.28;;;11.40;99.90;;;;;;5042025;28;20060;-87
2022/04/14 06:24:16;;;;;;;0.00;0.00;;;11.40;99.90;;;;;;5041646;28;20052;-87
2022/04/14 06:26:42;;;;;;;0.00;0.00;;;11.50;99.90;;;;;;5041582;28;20044;-88
2022/04/14 06:29:08;;;;;;;0.10;0.10;;;11.60;99.90;;;;;;5069311;28;20127;-87
2022/04/14 06:31:35;;;;;;;1.58;0.63;;;11.70;99.90;;;;;;5053809;28;20443;-87
2022/04/14 06:34:02;;;;;;;1.02;0.68;;;11.80;99.90;;;;;;5061204;28;20051;-87
2022/04/14 06:36:27;;;;;;;0.75;0.30;;;11.80;99.90;;;;;;5061654;28;20550;-86
2022/04/14 06:38:53;;;;;;;0.52;0.52;;;12.00;99.90;;;;;;5077785;28;20048;-86
2022/04/14 06:41:19;;;;;;;3.50;1.75;;;12.10;99.90;;;;;;5073386;28;20135;-86
2022/04/14 06:43:49;;;;;;;0.30;0.30;;;12.30;99.90;;;;;;5056518;28;20492;-86
2022/04/14 06:46:17;;;;;;;0.40;0.00;;;12.60;99.90;;;;;;5074272;28;20557;-86
2022/04/14 06:48:43;;;;;;;0.40;0.20;;;13.10;99.90;;;;;;5057722;28;20056;-86
2022/04/14 06:51:09;;;;;;;0.85;0.40;;;13.90;99.90;;;;;;5074288;28;20048;-87
2022/04/14 06:53:35;;;;;;;0.70;0.70;;;14.60;99.90;;;;;;5072551;28;20040;-86
2022/04/14 06:56:01;;;;;;;1.60;0.60;;;15.40;99.90;;;;;;5074538;28;20563;-86
2022/04/14 06:58:28;;;;;;;0.22;0.22;;;16.10;99.90;;;;;;5073990;28;20542;-86
2022/04/14 07:00:54;;;;;;;0.20;0.20;;;16.80;99.90;;;;;;5056066;28;20140;-86
2022/04/14 07:03:26;;;;;;;0.45;0.45;;;17.40;99.90;;;;;;5072616;28;20428;-87
2022/04/14 07:05:56;;;;;;;0.28;0.28;;;17.90;99.90;;;;;;5073810;28;20415;-87
2022/04/14 07:08:24;;;;;;;0.10;0.10;;;17.90;99.90;;;;;;5074021;28;20056;-87
2022/04/14 07:10:50;;;;;;;0.70;0.70;;;17.80;99.90;;;;;;5074004;28;20450;-87
2022/04/14 07:13:16;;;;;;;1.75;0.80;;;17.60;99.90;;;;;;5055825;28;20057;-86
2022/04/14 07:15:42;;;;;;;0.95;0.43;;;17.40;99.90;;;;;;5072992;28;20118;-87
2022/04/14 07:18:08;;;;;;;0.28;0.17;;;17.50;99.90;;;;;;5056806;28;20147;-87
2022/04/14 07:20:33;;;;;;;0.77;0.70;;;17.90;99.90;;;;;;5073253;28;20040;-88
2022/04/14 07:23:02;;;;;;;0.20;0.20;;;18.50;99.90;;;;;;5057110;28;20045;-87
2022/04/14 07:25:30;;;;;;;0.45;0.32;;;19.10;99.90;;;;;;5070575;28;20118;-88
2022/04/14 07:27:56;;;;;;;1.02;1.02;;;19.50;99.90;;;;;;5056003;28;20411;-89
2022/04/14 07:30:23;;;;;;;1.45;1.10;;;20.00;99.90;;;;;;5055811;28;20044;-88
2022/04/14 07:32:49;;;;;;;2.20;0.75;;;20.30;99.90;;;;;;5073483;28;20044;-87
2022/04/14 07:35:16;;;;;;;1.17;1.15;;;20.40;99.10;;;;;;5071593;28;20074;-88
2022/04/14 07:37:44;;;;;;;0.32;0.25;;;20.40;99.50;;;;;;5073779;28;20434;-88
2022/04/14 07:40:10;;;;;;;0.80;0.75;;;20.30;99.80;;;;;;5056781;28;20036;-88
2022/04/14 07:42:38;;;;;;;0.88;0.80;;;20.30;99.90;;;;;;5072751;28;20056;-88
2022/04/14 07:45:05;;;;;;;0.10;0.10;;;20.40;99.90;;;;;;5061970;28;20055;-87
2022/04/14 07:47:31;;;;;;;1.70;0.65;;;20.30;98.50;;;;;;5071660;28;20091;-88
2022/04/14 07:49:57;;;;;;;0.10;0.10;;;20.30;99.90;;;;;;5067648;28;20041;-87
2022/04/14 07:52:23;;;;;;;0.00;0.00;;;20.20;99.60;;;;;;5066340;28;20127;-86
2022/04/14 07:54:48;;;;;;;0.57;0.30;;;20.10;99.70;;;;;;5038158;28;20088;-87
2022/04/14 07:57:14;;;;;;;0.47;0.43;;;20.00;99.50;;;;;;5040836;28;20079;-84
2022/04/14 07:59:40;;;;;;;0.75;0.75;;;19.70;99.90;;;;;;5068232;28;20028;-87
2022/04/14 08:02:06;;;;;;;0.20;0.20;;;19.60;99.90;;;;;;5060384;28;20049;-88
2022/04/14 08:04:32;;;;;;;1.45;0.75;;;19.40;99.90;;;;;;5061822;28;20041;-85
2022/04/14 08:06:57;;;;;;;0.80;0.65;;;19.10;99.90;;;;;;5055589;28;20041;-86
2022/04/14 08:09:23;;;;;;;0.05;0.05;;;18.90;99.90;;;;;;5039765;28;20052;-88
2022/04/14 08:11:49;;;;;;;1.33;0.77;;;18.70;99.90;;;;;;5072378;28;20059;-89
2022/04/14 08:14:14;;;;;;;3.53;1.55;;;18.60;99.90;;;;;;5056341;28;20506;-88
2022/04/14 08:16:40;;;;;;;0.30;0.30;;;18.60;99.90;;;;;;5056028;28;20087;-87
2022/04/14 08:19:06;;;;;;;1.20;1.10;;;18.50;99.90;;;;;;5055684;28;20048;-87
2022/04/14 08:21:31;;;;;;;1.15;1.15;;;18.40;99.90;;;;;;5072416;28;20041;-88
2022/04/14 08:23:58;;;;;;;0.30;0.13;;;18.10;99.90;;;;;;5055644;28;20045;-87
2022/04/14 08:26:26;;;;;;;0.55;0.55;;;18.00;99.90;;;;;;5072578;28;20041;-87
2022/04/14 08:28:53;;;;;;;0.65;0.45;;;18.00;99.90;;;;;;5055628;28;20102;-87
2022/04/14 08:31:21;;;;;;;0.35;0.35;;;17.90;99.90;;;;;;5055586;28;20087;-87
2022/04/14 08:33:48;;;;;;;0.73;0.17;;;17.90;99.90;;;;;;5072418;28;20063;-87
2022/04/14 08:36:15;;;;;;;0.00;0.00;;;17.80;99.90;;;;;;5055522;28;20048;-87
2022/04/14 08:38:44;;;;;;;2.17;0.63;;;17.80;99.90;;;;;;5072553;28;20132;-87
2022/04/14 08:41:13;;;;;;;0.00;0.00;;;17.80;99.90;;;;;;5072593;28;20126;-87
2022/04/14 08:43:46;;;;;;;0.00;0.00;;;17.90;99.90;;;;;;5072506;28;20499;-86
2022/04/14 08:46:11;;;;;;;2.08;0.90;;;17.90;99.90;;;;;;5055928;28;20405;-86
2022/04/14 08:48:39;;;;;;;0.38;0.38;;;18.10;99.90;;;;;;5072437;28;20052;-86
2022/04/14 08:51:06;;;;;;;0.10;0.10;;;18.20;99.90;;;;;;5072406;28;20091;-86
2022/04/14 08:53:35;;;;;;;0.00;0.00;;;18.40;99.90;;;;;;5072318;28;20182;-86
2022/04/14 08:56:04;;;;;;;1.38;0.10;;;18.50;99.90;;;;;;5055278;28;20492;-86
2022/04/14 08:58:30;;;;;;;0.20;0.20;;;18.60;99.90;;;;;;5055673;28;20059;-86
2022/04/14 09:00:55;;;;;;;2.05;0.55;;;18.60;99.90;;;;;;5055362;28;20037;-86
2022/04/14 09:03:21;;;;;;;0.00;0.00;;;18.60;99.90;;;;;;5055625;28;20141;-86
2022/04/14 09:05:47;;;;;;;0.82;0.80;;;18.80;99.90;;;;;;5055001;28;20400;-87
2022/04/14 09:08:13;;;;;;;0.32;0.25;;;18.90;99.90;;;;;;5055067;28;20117;-85
2022/04/14 09:10:40;;;;;;;0.00;0.00;;;19.10;99.90;;;;;;5055059;28;20049;-86
2022/04/14 09:13:05;;;;;;;0.45;0.30;;;19.20;99.90;;;;;;5072463;28;20068;-86
2022/04/14 09:15:31;;;;;;;0.20;0.20;;;19.30;99.50;;;;;;5055560;28;20472;-86
2022/04/14 09:17:57;;;;;;;0.28;0.25;;;19.50;99.90;;;;;;5071852;28;20444;-86
2022/04/14 09:20:34;;;;;;;2.05;0.68;;;19.60;99.90;;;;;;5055382;28;20040;-86
2022/04/14 09:23:25;;;;;;;0.00;0.00;;;19.70;98.90;;;;;;5056056;28;20045;-86
2022/04/14 09:26:02;;;;;;;0.10;0.10;;;19.80;99.70;;;;;;5072145;28;20511;-87
2022/04/14 09:28:29;;;;;;;0.20;0.10;;;19.70;99.90;;;;;;5071880;28;20055;-87
2022/04/14 09:30:59;;;;;;;0.20;0.20;;;19.80;98.90;;;;;;5054484;28;20106;-86
2022/04/14 09:33:26;;;;;;;2.15;0.80;;;20.00;98.70;;;;;;5055538;28;20045;-86
2022/04/14 09:36:30;;;;;;;0.28;0.28;;;20.20;98.30;;;;;;5071657;28;20372;-86
2022/04/14 09:39:01;;;;;;;1.45;0.65;;;20.00;97.60;;;;;;4975775;28;20148;-86
2022/04/14 09:41:40;;;;;;;3.95;1.20;;;20.10;96.70;;;;;;4974799;28;20058;-86
2022/04/14 09:44:14;;;;;;;3.30;0.22;;;20.20;97.10;;;;;;4975353;28;20518;-86
2022/04/14 09:46:44;;;;;;;0.50;0.50;;;20.30;97.40;;;;;;4959153;28;20050;-86
2022/04/14 09:49:11;;;;;;;0.20;0.20;;;20.40;97.40;;;;;;4978457;28;20054;-86
2022/04/14 09:51:41;;;;;;;3.20;0.55;;;20.50;96.70;;;;;;4978861;28;20054;-86
2022/04/14 09:54:15;;;;;;;0.00;0.00;;;20.70;96.20;;;;;;4978758;28;20515;-85
2022/04/14 09:56:41;;;;;;;;;;;20.60;96.10;;;;;;4962719;28;20533;-86
2022/04/14 09:59:08;;;;;;;0.70;0.40;;;20.30;95.00;;;;;;4978619;28;19921;-86
2022/04/14 10:01:34;;;;;;;0.00;0.00;;;19.90;94.10;;;;;;4978775;28;20050;-86
2022/04/14 10:04:01;;;;;;;0.08;0.08;;;19.90;96.30;;;;;;4978765;28;20059;-86
2022/04/14 10:06:26;;;;;;;0.10;0.10;;;20.20;96.70;;;;;;4962583;28;20082;-86
2022/04/14 10:08:52;;;;;;;0.30;0.30;;;20.50;95.80;;;;;;4992427;28;20496;-85
2022/04/14 10:11:36;;;;;;;0.20;0.20;;;20.90;95.10;;;;;;5075334;28;20102;-85
2022/04/14 10:14:18;;;;;;;0.00;0.00;;;21.10;93.90;;;;;;5058049;28;20048;-86
2022/04/14 10:16:46;;;;;;;0.25;0.25;;;21.20;93.90;;;;;;5057753;28;20052;-85
2022/04/14 10:19:13;;;;;;;0.03;0.00;;;21.20;92.30;;;;;;5074969;28;20044;-85
2022/04/14 10:21:39;;;;;;;0.98;0.40;;;21.50;93.20;;;;;;5075090;28;20036;-89
2022/04/14 10:24:06;;;;;;;0.17;0.17;;;21.70;92.70;;;;;;5074905;28;20060;-89
2022/04/14 10:26:35;;;;;;;1.50;0.15;;;21.70;90.70;;;;;;5058214;28;20045;-85
2022/04/14 10:29:03;;;;;;;0.00;0.00;;;21.80;91.50;;;;;;5074540;28;20044;-85
2022/04/14 10:31:30;;;;;;;0.43;0.38;;;22.00;90.60;;;;;;5074680;28;20041;-85
2022/04/14 10:33:59;;;;;;;0.10;0.10;;;22.10;90.40;;;;;;5075487;28;20072;-85
2022/04/14 10:36:25;;;;;;;0.10;0.10;;;21.90;87.50;;;;;;5074282;28;20492;-86
2022/04/14 10:38:51;;;;;;;0.10;0.10;;;21.50;88.10;;;;;;5075015;28;20131;-85
2022/04/14 10:41:21;;;;;;;0.10;0.10;;;21.30;87.50;;;;;;5056905;28;20052;-85
2022/04/14 10:43:47;;;;;;;0.20;0.20;;;21.10;91.10;;;;;;5074600;28;20060;-85
2022/04/14 10:46:17;;;;;;;0.30;0.20;;;21.10;90.70;;;;;;5074512;28;20460;-85
2022/04/14 10:48:44;;;;;;;0.03;0.03;;;21.40;92.70;;;;;;5057986;28;20059;-85
2022/04/14 10:51:22;;;;;;;0.10;0.10;;;21.50;93.00;;;;;;5057291;28;20053;-84
2022/04/14 10:53:55;;;;;;;1.95;0.00;;;21.50;90.00;;;;;;5074569;28;20113;-85
2022/04/14 10:56:42;;;;;;;0.13;0.13;;;21.70;87.60;;;;;;5056785;28;20099;-84
2022/04/14 10:59:11;;;;;;;0.10;0.10;;;21.50;88.60;;;;;;5057739;28;20125;-84
2022/04/14 11:01:45;;;;;;;1.45;0.10;;;21.20;84.10;;;;;;5057206;28;20050;-85
2022/04/14 11:04:31;;;;;;;0.00;0.00;;;21.10;85.20;;;;;;5057738;28;20056;-84
2022/04/14 11:07:01;;;;;;;0.10;0.10;;;21.00;85.20;;;;;;5056834;28;20149;-84
2022/04/14 11:09:42;;;;;;;0.00;0.00;;;20.60;83.30;;;;;;5058036;28;20051;-84
2022/04/14 11:12:19;;;;;;;0.00;0.00;;;20.60;89.10;;;;;;5073947;28;20135;-84
2022/04/14 11:14:44;;;;;;;0.00;0.00;;;20.70;86.80;;;;;;5073830;28;20055;-84
2022/04/14 11:17:40;;;;;;;0.10;0.10;;;20.60;89.70;;;;;;5071039;28;20059;-84
2022/04/14 11:20:45;;;;;;;0.00;0.00;;;20.90;90.90;;;;;;5072494;28;20507;-84
2022/04/14 11:23:24;;;;;;;0.08;0.08;;;21.30;92.20;;;;;;5056611;28;20074;-83
2022/04/14 11:26:09;;;;;;;0.00;0.00;;;21.80;88.10;;;;;;5073899;28;20109;-83
2022/04/14 11:28:42;;;;;;;0.32;0.32;;;21.80;87.00;;;;;;5073727;28;20045;-84
2022/04/14 11:31:17;;;;;;;0.00;0.00;;;21.70;84.60;;;;;;5056784;28;20056;-84
2022/04/14 11:33:44;;;;;;;0.10;0.10;;;21.70;84.50;;;;;;5056842;28;20102;-84
2022/04/14 11:36:14;;;;;;;1.23;0.35;;;21.40;80.90;;;;;;5056548;28;20049;-84
2022/04/14 11:38:56;;;;;;;0.00;0.00;;;21.40;83.20;;;;;;5073452;28;20051;-84
2022/04/14 11:41:32;;;;;;;0.70;0.55;;;21.30;86.70;;;;;;5073039;28;20135;-84
2022/04/14 11:44:00;;;;;;;6.03;0.65;;;21.50;82.20;;;;;;5056897;28;20071;-84
2022/04/14 11:46:26;;;;;;;0.45;0.45;;;21.50;78.50;;;;;;5055841;28;20506;-84
2022/04/14 11:48:52;;;;;;;0.00;0.00;;;21.40;75.80;;;;;;5073105;28;20048;-84
2022/04/14 11:51:18;;;;;;;0.40;0.40;;;21.30;80.10;;;;;;5056584;28;20041;-84
2022/04/14 11:53:45;;;;;;;0.20;0.20;;;21.20;79.30;;;;;;5055964;28;20059;-84
2022/04/14 11:56:20;;;;;;;0.00;0.00;;;21.20;80.30;;;;;;5072929;28;20135;-84
2022/04/14 11:58:47;;;;;;;0.00;0.00;;;21.50;81.30;;;;;;5073117;28;20431;-84
2022/04/14 12:01:13;;;;;;;0.00;0.00;;;21.90;82.50;;;;;;5056150;28;20044;-84
2022/04/14 12:03:41;;;;;;;0.45;0.10;;;22.20;79.80;;;;;;5072988;28;20080;-84
2022/04/14 12:06:11;;;;;;;0.10;0.10;;;22.10;78.10;;;;;;5055960;28;20091;-84
2022/04/14 12:08:37;;;;;;;0.03;0.00;;;21.60;72.80;;;;;;5056206;28;20503;-84
2022/04/14 12:11:16;;;;;;;0.20;0.20;;;21.40;75.60;;;;;;5055757;28;20044;-84
2022/04/14 12:13:42;;;;;;;2.08;0.00;;;21.10;71.40;;;;;;5056179;28;20517;-84
2022/04/14 12:16:09;;;;;;;0.00;0.00;;;21.10;74.80;;;;;;5073355;28;20044;-83
2022/04/14 12:18:37;;;;;;;0.00;0.00;;;21.10;76.90;;;;;;5072916;28;20051;-84
2022/04/14 12:21:04;;;;;;;0.10;0.05;;;21.30;77.00;;;;;;5056182;28;20041;-84
2022/04/14 12:23:31;;;;;;;0.10;0.10;;;21.50;76.10;;;;;;5055999;28;20507;-84
2022/04/14 12:25:58;;;;;;;0.00;0.00;;;21.70;75.50;;;;;;5072652;28;20388;-84
2022/04/14 12:28:24;;;;;;;0.08;0.00;;;22.00;76.90;;;;;;5072630;28;20055;-84
2022/04/14 12:30:49;;;;;;;0.35;0.35;;;22.30;74.70;;;;;;5072626;28;20052;-84
2022/04/14 12:33:15;;;;;;;0.00;0.00;;;22.60;75.00;;;;;;5056296;28;20045;-84
2022/04/14 12:35:42;;;;;;;0.10;0.10;;;22.80;76.40;;;;;;5072881;28;20505;-84
2022/04/14 12:38:28;;;;;;;0.20;0.20;;;22.60;71.20;;;;;;5055969;28;20051;-84
2022/04/14 12:41:03;;;;;;;0.10;0.10;;;22.30;71.20;;;;;;5057265;28;20369;-84
2022/04/14 12:43:37;;;;;;;0.00;0.00;;;22.30;70.90;;;;;;5059260;28;20052;-84
2022/04/14 12:46:24;;;;;;;0.00;0.00;;;22.40;73.50;;;;;;5075823;28;20040;-84
2022/04/14 12:49:02;;;;;;;1.35;0.20;;;22.20;72.10;;;;;;4975922;28;20491;-84
2022/04/14 12:51:32;;;;;;;0.00;0.00;;;22.20;71.30;;;;;;4960335;28;20058;-84